Terminal Aerodrome Forecast
Issued by NWS Central Illinois

Home | Current Version | Previous Version | Text Only | Print | Product List | Glossary On
Versions: 1 2 3 4 5 6 7 8 9 10 11 12 13 14 15 16 17 18 19
000
FTUS43 KILX 061428 AAA
TAFPIA
TAF AMD
KPIA 061428Z 0614/0712 18005KT 4SM HZ SCT035 BKN250
      TEMPO 0614/0616 6SM HZ
     FM061600 19013G20KT P6SM SCT030 BKN250
     FM070000 19012KT P6SM VCTS SCT050CB OVC250
     FM070200 18011KT 5SM -TSRA BR BKN040CB
     FM070600 20010KT 5SM BR VCSH OVC025=

USA.gov is the U.S. government's official web portal to all federal, state and local government web resources and services.